sensor_id;sensor_type;location;lat;lon;timestamp;P1;durP1;ratioP1;P2;durP2;ratioP2
16504;SDS011;8365;51.030;4.696;2023-05-10T00:02:03;13.73;;;12.33;;
16504;SDS011;8365;51.030;4.696;2023-05-10T00:04:34;17.40;;;12.90;;
16504;SDS011;8365;51.030;4.696;2023-05-10T00:07:05;14.97;;;13.17;;
16504;SDS011;8365;51.030;4.696;2023-05-10T00:09:35;15.97;;;13.47;;
16504;SDS011;8365;51.030;4.696;2023-05-10T00:12:06;15.23;;;12.43;;
16504;SDS011;8365;51.030;4.696;2023-05-10T00:14:36;16.57;;;13.13;;
16504;SDS011;8365;51.030;4.696;2023-05-10T00:17:06;15.10;;;13.17;;
16504;SDS011;8365;51.030;4.696;2023-05-10T00:19:37;13.70;;;12.30;;
16504;SDS011;8365;51.030;4.696;2023-05-10T00:22:07;15.47;;;12.47;;
16504;SDS011;8365;51.030;4.696;2023-05-10T00:24:38;14.90;;;12.77;;
16504;SDS011;8365;51.030;4.696;2023-05-10T00:27:08;14.97;;;12.43;;
16504;SDS011;8365;51.030;4.696;2023-05-10T00:29:39;14.47;;;11.70;;
16504;SDS011;8365;51.030;4.696;2023-05-10T00:32:12;14.10;;;12.53;;
16504;SDS011;8365;51.030;4.696;2023-05-10T00:34:43;14.27;;;12.20;;
16504;SDS011;8365;51.030;4.696;2023-05-10T00:37:14;15.43;;;11.67;;
16504;SDS011;8365;51.030;4.696;2023-05-10T00:39:46;14.47;;;11.67;;
16504;SDS011;8365;51.030;4.696;2023-05-10T00:42:17;17.77;;;12.37;;
16504;SDS011;8365;51.030;4.696;2023-05-10T00:44:47;14.93;;;12.20;;
16504;SDS011;8365;51.030;4.696;2023-05-10T00:47:18;17.87;;;11.47;;
16504;SDS011;8365;51.030;4.696;2023-05-10T00:49:48;15.00;;;11.13;;
16504;SDS011;8365;51.030;4.696;2023-05-10T00:52:19;15.53;;;11.40;;
16504;SDS011;8365;51.030;4.696;2023-05-10T00:54:50;15.27;;;11.70;;
16504;SDS011;8365;51.030;4.696;2023-05-10T00:57:25;16.60;;;11.47;;
16504;SDS011;8365;51.030;4.696;2023-05-10T00:59:55;16.70;;;11.97;;
16504;SDS011;8365;51.030;4.696;2023-05-10T01:02:26;13.53;;;11.13;;
16504;SDS011;8365;51.030;4.696;2023-05-10T01:04:57;16.73;;;11.90;;
16504;SDS011;8365;51.030;4.696;2023-05-10T01:07:29;15.53;;;12.10;;
16504;SDS011;8365;51.030;4.696;2023-05-10T01:09:59;16.23;;;11.60;;
16504;SDS011;8365;51.030;4.696;2023-05-10T01:12:30;14.37;;;10.93;;
16504;SDS011;8365;51.030;4.696;2023-05-10T01:15:00;15.53;;;11.20;;
16504;SDS011;8365;51.030;4.696;2023-05-10T01:17:32;13.97;;;11.00;;
16504;SDS011;8365;51.030;4.696;2023-05-10T01:20:03;15.60;;;11.50;;
16504;SDS011;8365;51.030;4.696;2023-05-10T01:34:34;16.77;;;11.63;;
16504;SDS011;8365;51.030;4.696;2023-05-10T01:37:22;16.30;;;12.70;;
16504;SDS011;8365;51.030;4.696;2023-05-10T01:40:03;16.27;;;12.40;;
16504;SDS011;8365;51.030;4.696;2023-05-10T01:42:37;17.47;;;12.60;;
16504;SDS011;8365;51.030;4.696;2023-05-10T01:45:20;16.57;;;12.30;;
16504;SDS011;8365;51.030;4.696;2023-05-10T01:48:11;15.90;;;12.57;;
16504;SDS011;8365;51.030;4.696;2023-05-10T01:50:45;15.93;;;12.00;;
16504;SDS011;8365;51.030;4.696;2023-05-10T01:53:18;17.37;;;13.03;;
16504;SDS011;8365;51.030;4.696;2023-05-10T01:55:53;18.27;;;13.57;;
16504;SDS011;8365;51.030;4.696;2023-05-10T01:58:27;18.27;;;13.27;;
16504;SDS011;8365;51.030;4.696;2023-05-10T02:01:01;18.97;;;13.63;;
16504;SDS011;8365;51.030;4.696;2023-05-10T02:03:34;17.57;;;14.53;;
16504;SDS011;8365;51.030;4.696;2023-05-10T02:06:06;17.50;;;13.17;;
16504;SDS011;8365;51.030;4.696;2023-05-10T02:08:40;15.13;;;12.93;;
16504;SDS011;8365;51.030;4.696;2023-05-10T02:11:15;19.33;;;13.53;;
16504;SDS011;8365;51.030;4.696;2023-05-10T02:13:50;19.37;;;13.77;;
16504;SDS011;8365;51.030;4.696;2023-05-10T02:16:26;18.70;;;13.50;;
16504;SDS011;8365;51.030;4.696;2023-05-10T02:18:57;22.97;;;13.97;;
16504;SDS011;8365;51.030;4.696;2023-05-10T02:21:30;17.73;;;13.67;;
16504;SDS011;8365;51.030;4.696;2023-05-10T02:24:02;18.73;;;13.33;;
16504;SDS011;8365;51.030;4.696;2023-05-10T02:26:37;16.57;;;13.50;;
16504;SDS011;8365;51.030;4.696;2023-05-10T02:29:08;16.33;;;13.53;;
16504;SDS011;8365;51.030;4.696;2023-05-10T02:31:39;20.73;;;14.80;;
16504;SDS011;8365;51.030;4.696;2023-05-10T02:34:13;20.23;;;14.33;;
16504;SDS011;8365;51.030;4.696;2023-05-10T02:36:47;19.10;;;13.73;;
16504;SDS011;8365;51.030;4.696;2023-05-10T02:39:21;18.50;;;13.83;;
16504;SDS011;8365;51.030;4.696;2023-05-10T02:41:53;18.67;;;14.10;;
16504;SDS011;8365;51.030;4.696;2023-05-10T02:44:25;18.43;;;13.70;;
16504;SDS011;8365;51.030;4.696;2023-05-10T02:46:57;16.53;;;14.53;;
16504;SDS011;8365;51.030;4.696;2023-05-10T02:49:28;18.80;;;14.00;;
16504;SDS011;8365;51.030;4.696;2023-05-10T02:51:59;18.40;;;15.17;;
16504;SDS011;8365;51.030;4.696;2023-05-10T02:54:36;17.47;;;14.27;;
16504;SDS011;8365;51.030;4.696;2023-05-10T02:57:16;20.10;;;15.60;;
16504;SDS011;8365;51.030;4.696;2023-05-10T02:59:50;18.10;;;13.97;;
16504;SDS011;8365;51.030;4.696;2023-05-10T03:02:21;18.67;;;14.47;;
16504;SDS011;8365;51.030;4.696;2023-05-10T03:04:54;17.53;;;13.60;;
16504;SDS011;8365;51.030;4.696;2023-05-10T03:07:24;20.37;;;14.83;;
16504;SDS011;8365;51.030;4.696;2023-05-10T03:09:55;17.17;;;14.47;;
16504;SDS011;8365;51.030;4.696;2023-05-10T03:15:33;21.20;;;15.50;;
16504;SDS011;8365;51.030;4.696;2023-05-10T03:21:36;22.13;;;16.93;;
16504;SDS011;8365;51.030;4.696;2023-05-10T03:24:11;20.57;;;15.37;;
16504;SDS011;8365;51.030;4.696;2023-05-10T03:26:45;20.90;;;15.73;;
16504;SDS011;8365;51.030;4.696;2023-05-10T03:29:16;21.77;;;16.27;;
16504;SDS011;8365;51.030;4.696;2023-05-10T03:31:47;21.10;;;15.83;;
16504;SDS011;8365;51.030;4.696;2023-05-10T03:34:22;22.10;;;16.80;;
16504;SDS011;8365;51.030;4.696;2023-05-10T03:36:54;22.93;;;16.77;;
16504;SDS011;8365;51.030;4.696;2023-05-10T03:39:25;22.47;;;16.93;;
16504;SDS011;8365;51.030;4.696;2023-05-10T03:41:58;23.13;;;17.63;;
16504;SDS011;8365;51.030;4.696;2023-05-10T03:44:29;22.27;;;18.03;;
16504;SDS011;8365;51.030;4.696;2023-05-10T03:46:59;25.13;;;18.47;;
16504;SDS011;8365;51.030;4.696;2023-05-10T03:49:30;26.23;;;18.57;;
16504;SDS011;8365;51.030;4.696;2023-05-10T03:52:00;26.80;;;19.67;;
16504;SDS011;8365;51.030;4.696;2023-05-10T03:54:33;24.53;;;19.13;;
16504;SDS011;8365;51.030;4.696;2023-05-10T03:57:06;26.57;;;19.43;;
16504;SDS011;8365;51.030;4.696;2023-05-10T03:59:36;27.13;;;19.40;;
16504;SDS011;8365;51.030;4.696;2023-05-10T04:02:09;26.93;;;20.07;;
16504;SDS011;8365;51.030;4.696;2023-05-10T04:04:40;27.20;;;19.03;;
16504;SDS011;8365;51.030;4.696;2023-05-10T04:07:10;26.63;;;19.13;;
16504;SDS011;8365;51.030;4.696;2023-05-10T04:09:41;26.23;;;19.73;;
16504;SDS011;8365;51.030;4.696;2023-05-10T04:12:11;24.37;;;19.40;;
16504;SDS011;8365;51.030;4.696;2023-05-10T04:14:41;25.63;;;18.87;;
16504;SDS011;8365;51.030;4.696;2023-05-10T04:17:12;26.10;;;18.97;;
16504;SDS011;8365;51.030;4.696;2023-05-10T04:19:42;28.07;;;20.53;;
16504;SDS011;8365;51.030;4.696;2023-05-10T04:22:13;25.80;;;20.03;;
16504;SDS011;8365;51.030;4.696;2023-05-10T04:24:43;25.80;;;19.97;;
16504;SDS011;8365;51.030;4.696;2023-05-10T04:27:14;28.13;;;20.13;;
16504;SDS011;8365;51.030;4.696;2023-05-10T04:29:44;24.03;;;19.47;;
16504;SDS011;8365;51.030;4.696;2023-05-10T04:32:15;28.67;;;20.87;;
16504;SDS011;8365;51.030;4.696;2023-05-10T04:34:47;28.03;;;21.37;;
16504;SDS011;8365;51.030;4.696;2023-05-10T04:37:17;28.90;;;20.83;;
16504;SDS011;8365;51.030;4.696;2023-05-10T04:39:48;26.23;;;20.27;;
16504;SDS011;8365;51.030;4.696;2023-05-10T04:42:18;30.20;;;21.27;;
16504;SDS011;8365;51.030;4.696;2023-05-10T04:44:48;30.93;;;21.13;;
16504;SDS011;8365;51.030;4.696;2023-05-10T04:47:19;36.57;;;26.13;;
16504;SDS011;8365;51.030;4.696;2023-05-10T04:49:49;37.27;;;26.67;;
16504;SDS011;8365;51.030;4.696;2023-05-10T04:52:20;37.03;;;25.63;;
16504;SDS011;8365;51.030;4.696;2023-05-10T04:54:50;38.30;;;27.10;;
16504;SDS011;8365;51.030;4.696;2023-05-10T04:57:23;36.97;;;26.77;;
16504;SDS011;8365;51.030;4.696;2023-05-10T04:59:54;36.43;;;25.63;;
16504;SDS011;8365;51.030;4.696;2023-05-10T05:02:25;36.70;;;25.87;;
16504;SDS011;8365;51.030;4.696;2023-05-10T05:04:56;38.40;;;27.47;;
16504;SDS011;8365;51.030;4.696;2023-05-10T05:07:27;40.60;;;27.60;;
16504;SDS011;8365;51.030;4.696;2023-05-10T05:09:58;44.87;;;29.27;;
16504;SDS011;8365;51.030;4.696;2023-05-10T05:12:28;39.57;;;27.47;;
16504;SDS011;8365;51.030;4.696;2023-05-10T05:14:59;41.63;;;27.50;;
16504;SDS011;8365;51.030;4.696;2023-05-10T05:17:29;45.40;;;28.90;;
16504;SDS011;8365;51.030;4.696;2023-05-10T05:20:00;43.97;;;29.07;;
16504;SDS011;8365;51.030;4.696;2023-05-10T05:22:31;44.00;;;28.13;;
16504;SDS011;8365;51.030;4.696;2023-05-10T05:25:01;41.30;;;28.13;;
16504;SDS011;8365;51.030;4.696;2023-05-10T05:27:33;43.03;;;28.53;;
16504;SDS011;8365;51.030;4.696;2023-05-10T05:30:03;41.73;;;27.67;;
16504;SDS011;8365;51.030;4.696;2023-05-10T05:32:34;43.70;;;29.07;;
16504;SDS011;8365;51.030;4.696;2023-05-10T05:35:07;43.27;;;29.93;;
16504;SDS011;8365;51.030;4.696;2023-05-10T05:37:47;47.73;;;31.33;;
16504;SDS011;8365;51.030;4.696;2023-05-10T05:40:18;48.63;;;32.67;;
16504;SDS011;8365;51.030;4.696;2023-05-10T05:42:51;47.23;;;30.57;;
16504;SDS011;8365;51.030;4.696;2023-05-10T05:45:21;51.73;;;31.37;;
16504;SDS011;8365;51.030;4.696;2023-05-10T05:47:51;46.50;;;30.60;;
16504;SDS011;8365;51.030;4.696;2023-05-10T05:50:24;44.67;;;31.47;;
16504;SDS011;8365;51.030;4.696;2023-05-10T05:52:55;44.50;;;30.07;;
16504;SDS011;8365;51.030;4.696;2023-05-10T05:55:26;39.03;;;28.30;;
16504;SDS011;8365;51.030;4.696;2023-05-10T05:57:57;38.97;;;27.17;;
16504;SDS011;8365;51.030;4.696;2023-05-10T06:00:28;39.93;;;27.57;;
16504;SDS011;8365;51.030;4.696;2023-05-10T06:02:59;38.50;;;27.70;;
16504;SDS011;8365;51.030;4.696;2023-05-10T06:05:29;39.30;;;27.17;;
16504;SDS011;8365;51.030;4.696;2023-05-10T06:07:59;41.30;;;27.77;;
16504;SDS011;8365;51.030;4.696;2023-05-10T06:10:31;38.57;;;27.30;;
16504;SDS011;8365;51.030;4.696;2023-05-10T06:13:01;37.63;;;27.13;;
16504;SDS011;8365;51.030;4.696;2023-05-10T06:15:32;37.60;;;25.73;;
16504;SDS011;8365;51.030;4.696;2023-05-10T06:18:06;31.90;;;24.53;;
16504;SDS011;8365;51.030;4.696;2023-05-10T06:20:36;37.13;;;26.50;;
16504;SDS011;8365;51.030;4.696;2023-05-10T06:23:09;36.53;;;25.77;;
16504;SDS011;8365;51.030;4.696;2023-05-10T06:25:39;35.20;;;25.37;;
16504;SDS011;8365;51.030;4.696;2023-05-10T06:28:10;34.57;;;25.03;;
16504;SDS011;8365;51.030;4.696;2023-05-10T06:30:40;31.83;;;23.80;;
16504;SDS011;8365;51.030;4.696;2023-05-10T06:33:11;31.60;;;23.67;;
16504;SDS011;8365;51.030;4.696;2023-05-10T06:35:41;35.57;;;23.47;;
16504;SDS011;8365;51.030;4.696;2023-05-10T06:38:14;30.47;;;23.17;;
16504;SDS011;8365;51.030;4.696;2023-05-10T06:40:45;33.17;;;23.53;;
16504;SDS011;8365;51.030;4.696;2023-05-10T06:43:15;29.93;;;22.80;;
16504;SDS011;8365;51.030;4.696;2023-05-10T06:45:48;30.37;;;22.33;;
16504;SDS011;8365;51.030;4.696;2023-05-10T06:48:21;32.63;;;23.73;;
16504;SDS011;8365;51.030;4.696;2023-05-10T06:50:54;33.50;;;22.93;;
16504;SDS011;8365;51.030;4.696;2023-05-10T06:53:24;28.07;;;22.00;;
16504;SDS011;8365;51.030;4.696;2023-05-10T06:55:57;30.77;;;22.70;;
16504;SDS011;8365;51.030;4.696;2023-05-10T06:58:30;32.90;;;23.53;;
16504;SDS011;8365;51.030;4.696;2023-05-10T07:01:03;32.77;;;22.77;;
16504;SDS011;8365;51.030;4.696;2023-05-10T07:03:34;31.77;;;22.07;;
16504;SDS011;8365;51.030;4.696;2023-05-10T07:06:04;29.30;;;22.30;;
16504;SDS011;8365;51.030;4.696;2023-05-10T07:08:36;26.60;;;21.67;;
16504;SDS011;8365;51.030;4.696;2023-05-10T07:11:07;28.47;;;21.83;;
16504;SDS011;8365;51.030;4.696;2023-05-10T07:13:40;26.60;;;20.80;;
16504;SDS011;8365;51.030;4.696;2023-05-10T07:16:13;25.73;;;20.70;;
16504;SDS011;8365;51.030;4.696;2023-05-10T07:18:44;31.37;;;22.07;;
16504;SDS011;8365;51.030;4.696;2023-05-10T07:21:14;26.10;;;20.17;;
16504;SDS011;8365;51.030;4.696;2023-05-10T07:23:45;26.10;;;20.43;;
16504;SDS011;8365;51.030;4.696;2023-05-10T07:26:15;24.97;;;20.63;;
16504;SDS011;8365;51.030;4.696;2023-05-10T07:28:46;27.57;;;20.13;;
16504;SDS011;8365;51.030;4.696;2023-05-10T07:31:17;25.57;;;19.90;;
16504;SDS011;8365;51.030;4.696;2023-05-10T07:33:50;24.90;;;19.63;;
16504;SDS011;8365;51.030;4.696;2023-05-10T07:36:21;24.67;;;19.63;;
16504;SDS011;8365;51.030;4.696;2023-05-10T07:38:52;26.20;;;19.63;;
16504;SDS011;8365;51.030;4.696;2023-05-10T07:41:22;23.00;;;19.47;;
16504;SDS011;8365;51.030;4.696;2023-05-10T07:43:53;24.50;;;19.37;;
16504;SDS011;8365;51.030;4.696;2023-05-10T07:46:23;21.63;;;18.37;;
16504;SDS011;8365;51.030;4.696;2023-05-10T07:48:54;24.00;;;19.60;;
16504;SDS011;8365;51.030;4.696;2023-05-10T07:51:24;23.23;;;18.80;;
16504;SDS011;8365;51.030;4.696;2023-05-10T07:53:57;23.60;;;18.40;;
16504;SDS011;8365;51.030;4.696;2023-05-10T07:56:29;21.97;;;18.40;;
16504;SDS011;8365;51.030;4.696;2023-05-10T07:59:02;24.83;;;19.07;;
16504;SDS011;8365;51.030;4.696;2023-05-10T08:01:34;22.60;;;19.57;;
16504;SDS011;8365;51.030;4.696;2023-05-10T08:04:05;22.77;;;19.17;;
16504;SDS011;8365;51.030;4.696;2023-05-10T08:06:39;22.90;;;19.57;;
16504;SDS011;8365;51.030;4.696;2023-05-10T08:09:10;22.20;;;19.03;;
16504;SDS011;8365;51.030;4.696;2023-05-10T08:11:40;26.03;;;19.40;;
16504;SDS011;8365;51.030;4.696;2023-05-10T08:14:11;22.87;;;18.93;;
16504;SDS011;8365;51.030;4.696;2023-05-10T08:16:41;25.70;;;18.50;;
16504;SDS011;8365;51.030;4.696;2023-05-10T08:19:12;23.47;;;18.30;;
16504;SDS011;8365;51.030;4.696;2023-05-10T08:21:42;24.77;;;19.67;;
16504;SDS011;8365;51.030;4.696;2023-05-10T08:24:15;25.53;;;19.80;;
16504;SDS011;8365;51.030;4.696;2023-05-10T08:26:46;23.90;;;19.33;;
16504;SDS011;8365;51.030;4.696;2023-05-10T08:29:17;21.70;;;18.53;;
16504;SDS011;8365;51.030;4.696;2023-05-10T08:31:48;25.63;;;19.60;;
16504;SDS011;8365;51.030;4.696;2023-05-10T08:34:18;22.03;;;19.47;;
16504;SDS011;8365;51.030;4.696;2023-05-10T08:36:49;25.17;;;19.40;;
16504;SDS011;8365;51.030;4.696;2023-05-10T08:39:19;24.77;;;18.50;;
16504;SDS011;8365;51.030;4.696;2023-05-10T08:41:50;22.53;;;18.83;;
16504;SDS011;8365;51.030;4.696;2023-05-10T08:44:23;22.70;;;18.53;;
16504;SDS011;8365;51.030;4.696;2023-05-10T08:46:54;23.50;;;19.37;;
16504;SDS011;8365;51.030;4.696;2023-05-10T08:49:26;23.70;;;18.80;;
16504;SDS011;8365;51.030;4.696;2023-05-10T08:52:04;23.57;;;17.90;;
16504;SDS011;8365;51.030;4.696;2023-05-10T08:54:37;22.23;;;18.57;;
16504;SDS011;8365;51.030;4.696;2023-05-10T08:57:08;22.17;;;18.50;;
16504;SDS011;8365;51.030;4.696;2023-05-10T08:59:38;23.03;;;17.43;;
16504;SDS011;8365;51.030;4.696;2023-05-10T09:02:09;18.87;;;15.73;;
16504;SDS011;8365;51.030;4.696;2023-05-10T09:04:43;22.00;;;15.63;;
16504;SDS011;8365;51.030;4.696;2023-05-10T09:07:13;21.63;;;15.93;;
16504;SDS011;8365;51.030;4.696;2023-05-10T09:09:44;21.43;;;15.67;;
16504;SDS011;8365;51.030;4.696;2023-05-10T09:12:16;19.57;;;15.00;;
16504;SDS011;8365;51.030;4.696;2023-05-10T09:14:49;20.53;;;15.03;;
16504;SDS011;8365;51.030;4.696;2023-05-10T09:17:22;18.30;;;14.63;;
16504;SDS011;8365;51.030;4.696;2023-05-10T09:19:59;17.53;;;13.90;;
16504;SDS011;8365;51.030;4.696;2023-05-10T09:22:31;18.97;;;14.90;;
16504;SDS011;8365;51.030;4.696;2023-05-10T09:25:07;20.70;;;14.17;;
16504;SDS011;8365;51.030;4.696;2023-05-10T09:27:46;21.33;;;14.57;;
16504;SDS011;8365;51.030;4.696;2023-05-10T09:30:27;16.57;;;13.67;;
16504;SDS011;8365;51.030;4.696;2023-05-10T09:32:59;19.73;;;13.93;;
16504;SDS011;8365;51.030;4.696;2023-05-10T09:35:31;18.40;;;13.40;;
16504;SDS011;8365;51.030;4.696;2023-05-10T09:38:03;17.40;;;13.70;;
16504;SDS011;8365;51.030;4.696;2023-05-10T09:40:35;17.20;;;11.60;;
16504;SDS011;8365;51.030;4.696;2023-05-10T09:43:06;15.60;;;11.60;;
16504;SDS011;8365;51.030;4.696;2023-05-10T09:45:37;15.17;;;11.83;;
16504;SDS011;8365;51.030;4.696;2023-05-10T09:48:07;17.57;;;11.40;;
16504;SDS011;8365;51.030;4.696;2023-05-10T09:50:38;18.73;;;11.97;;
16504;SDS011;8365;51.030;4.696;2023-05-10T09:53:08;17.70;;;11.50;;
16504;SDS011;8365;51.030;4.696;2023-05-10T09:58:11;15.90;;;11.73;;
16504;SDS011;8365;51.030;4.696;2023-05-10T10:00:43;17.80;;;10.93;;
16504;SDS011;8365;51.030;4.696;2023-05-10T10:03:16;13.03;;;9.83;;
16504;SDS011;8365;51.030;4.696;2023-05-10T10:05:48;14.27;;;10.87;;
16504;SDS011;8365;51.030;4.696;2023-05-10T10:08:19;13.23;;;9.80;;
16504;SDS011;8365;51.030;4.696;2023-05-10T10:10:50;11.87;;;9.70;;
16504;SDS011;8365;51.030;4.696;2023-05-10T10:13:20;14.03;;;9.93;;
16504;SDS011;8365;51.030;4.696;2023-05-10T10:15:53;14.47;;;9.60;;
16504;SDS011;8365;51.030;4.696;2023-05-10T10:18:24;11.60;;;9.80;;
16504;SDS011;8365;51.030;4.696;2023-05-10T10:20:58;11.80;;;9.47;;
16504;SDS011;8365;51.030;4.696;2023-05-10T10:23:29;10.53;;;9.43;;
16504;SDS011;8365;51.030;4.696;2023-05-10T10:26:00;12.07;;;9.50;;
16504;SDS011;8365;51.030;4.696;2023-05-10T10:31:15;9.80;;;8.80;;
16504;SDS011;8365;51.030;4.696;2023-05-10T10:34:06;12.03;;;9.20;;
16504;SDS011;8365;51.030;4.696;2023-05-10T10:36:47;11.43;;;8.73;;
16504;SDS011;8365;51.030;4.696;2023-05-10T10:39:18;13.50;;;9.10;;
16504;SDS011;8365;51.030;4.696;2023-05-10T10:50:01;9.93;;;8.70;;
16504;SDS011;8365;51.030;4.696;2023-05-10T10:52:33;10.83;;;8.40;;
16504;SDS011;8365;51.030;4.696;2023-05-10T10:55:17;10.43;;;8.67;;
16504;SDS011;8365;51.030;4.696;2023-05-10T10:57:50;10.67;;;8.50;;
16504;SDS011;8365;51.030;4.696;2023-05-10T11:00:26;10.27;;;8.90;;
16504;SDS011;8365;51.030;4.696;2023-05-10T11:05:50;9.93;;;8.63;;
16504;SDS011;8365;51.030;4.696;2023-05-10T11:08:28;9.40;;;8.10;;
16504;SDS011;8365;51.030;4.696;2023-05-10T11:18:55;7.63;;;6.93;;
16504;SDS011;8365;51.030;4.696;2023-05-10T11:21:31;8.40;;;7.53;;
16504;SDS011;8365;51.030;4.696;2023-05-10T11:24:09;9.20;;;8.40;;
16504;SDS011;8365;51.030;4.696;2023-05-10T11:26:44;8.30;;;7.50;;
16504;SDS011;8365;51.030;4.696;2023-05-10T11:29:15;8.53;;;7.73;;
16504;SDS011;8365;51.030;4.696;2023-05-10T11:31:46;8.40;;;7.60;;
16504;SDS011;8365;51.030;4.696;2023-05-10T11:36:59;8.47;;;7.57;;
16504;SDS011;8365;51.030;4.696;2023-05-10T11:39:30;8.37;;;7.57;;
16504;SDS011;8365;51.030;4.696;2023-05-10T11:42:01;8.40;;;7.60;;
16504;SDS011;8365;51.030;4.696;2023-05-10T11:44:32;8.60;;;7.70;;
16504;SDS011;8365;51.030;4.696;2023-05-10T11:47:05;7.25;;;6.57;;
16504;SDS011;8365;51.030;4.696;2023-05-10T11:49:37;7.38;;;6.68;;
16504;SDS011;8365;51.030;4.696;2023-05-10T11:52:07;7.35;;;6.65;;
16504;SDS011;8365;51.030;4.696;2023-05-10T11:54:45;7.57;;;6.78;;
16504;SDS011;8365;51.030;4.696;2023-05-10T11:57:25;7.75;;;7.00;;
16504;SDS011;8365;51.030;4.696;2023-05-10T11:59:57;7.00;;;6.35;;
16504;SDS011;8365;51.030;4.696;2023-05-10T12:02:28;7.20;;;6.50;;
16504;SDS011;8365;51.030;4.696;2023-05-10T12:04:59;7.35;;;6.35;;
16504;SDS011;8365;51.030;4.696;2023-05-10T12:07:30;7.47;;;6.27;;
16504;SDS011;8365;51.030;4.696;2023-05-10T12:12:41;7.03;;;6.30;;
16504;SDS011;8365;51.030;4.696;2023-05-10T12:15:21;6.55;;;5.95;;
16504;SDS011;8365;51.030;4.696;2023-05-10T12:17:53;6.50;;;5.90;;
16504;SDS011;8365;51.030;4.696;2023-05-10T12:20:23;7.13;;;5.22;;
16504;SDS011;8365;51.030;4.696;2023-05-10T12:22:57;6.55;;;5.65;;
16504;SDS011;8365;51.030;4.696;2023-05-10T12:25:32;6.55;;;5.55;;
16504;SDS011;8365;51.030;4.696;2023-05-10T12:28:05;5.82;;;5.22;;
16504;SDS011;8365;51.030;4.696;2023-05-10T12:30:38;5.90;;;5.15;;
16504;SDS011;8365;51.030;4.696;2023-05-10T12:35:47;6.30;;;5.75;;
16504;SDS011;8365;51.030;4.696;2023-05-10T12:38:24;5.35;;;4.95;;
16504;SDS011;8365;51.030;4.696;2023-05-10T12:40:55;4.97;;;4.57;;
16504;SDS011;8365;51.030;4.696;2023-05-10T12:43:30;4.65;;;4.20;;
16504;SDS011;8365;51.030;4.696;2023-05-10T12:46:06;5.60;;;5.10;;
16504;SDS011;8365;51.030;4.696;2023-05-10T12:48:40;5.78;;;4.55;;
16504;SDS011;8365;51.030;4.696;2023-05-10T12:51:14;4.97;;;4.57;;
16504;SDS011;8365;51.030;4.696;2023-05-10T12:53:47;5.75;;;5.10;;
16504;SDS011;8365;51.030;4.696;2023-05-10T12:56:17;6.10;;;5.50;;
16504;SDS011;8365;51.030;4.696;2023-05-10T12:58:48;6.50;;;5.53;;
16504;SDS011;8365;51.030;4.696;2023-05-10T13:01:18;7.07;;;5.78;;
16504;SDS011;8365;51.030;4.696;2023-05-10T13:03:49;6.43;;;5.82;;
16504;SDS011;8365;51.030;4.696;2023-05-10T13:06:20;6.65;;;5.93;;
16504;SDS011;8365;51.030;4.696;2023-05-10T13:08:50;8.23;;;7.07;;
16504;SDS011;8365;51.030;4.696;2023-05-10T13:11:21;7.18;;;6.47;;
16504;SDS011;8365;51.030;4.696;2023-05-10T13:13:52;6.60;;;6.00;;
16504;SDS011;8365;51.030;4.696;2023-05-10T13:16:22;8.70;;;7.47;;
16504;SDS011;8365;51.030;4.696;2023-05-10T13:18:53;7.53;;;6.65;;
16504;SDS011;8365;51.030;4.696;2023-05-10T13:21:25;8.70;;;7.05;;
16504;SDS011;8365;51.030;4.696;2023-05-10T13:23:56;7.18;;;6.40;;
16504;SDS011;8365;51.030;4.696;2023-05-10T13:26:27;7.97;;;5.90;;
16504;SDS011;8365;51.030;4.696;2023-05-10T13:28:58;6.13;;;5.53;;
16504;SDS011;8365;51.030;4.696;2023-05-10T13:31:30;7.63;;;6.03;;
16504;SDS011;8365;51.030;4.696;2023-05-10T13:34:01;6.43;;;5.80;;
16504;SDS011;8365;51.030;4.696;2023-05-10T13:36:32;6.90;;;6.22;;
16504;SDS011;8365;51.030;4.696;2023-05-10T13:39:02;6.30;;;5.70;;
16504;SDS011;8365;51.030;4.696;2023-05-10T13:41:35;7.95;;;6.40;;
16504;SDS011;8365;51.030;4.696;2023-05-10T13:44:06;7.70;;;6.75;;
16504;SDS011;8365;51.030;4.696;2023-05-10T13:46:42;6.38;;;5.78;;
16504;SDS011;8365;51.030;4.696;2023-05-10T13:49:13;7.38;;;6.57;;
16504;SDS011;8365;51.030;4.696;2023-05-10T13:51:43;7.15;;;6.07;;
16504;SDS011;8365;51.030;4.696;2023-05-10T13:54:14;7.60;;;5.68;;
16504;SDS011;8365;51.030;4.696;2023-05-10T13:56:44;8.65;;;6.13;;
16504;SDS011;8365;51.030;4.696;2023-05-10T13:59:17;6.75;;;5.82;;
16504;SDS011;8365;51.030;4.696;2023-05-10T14:01:49;5.68;;;5.18;;
16504;SDS011;8365;51.030;4.696;2023-05-10T14:04:20;6.40;;;5.43;;
16504;SDS011;8365;51.030;4.696;2023-05-10T14:06:51;7.70;;;5.90;;
16504;SDS011;8365;51.030;4.696;2023-05-10T14:09:22;5.97;;;5.38;;
16504;SDS011;8365;51.030;4.696;2023-05-10T14:11:53;5.65;;;5.05;;
16504;SDS011;8365;51.030;4.696;2023-05-10T14:14:25;8.23;;;5.20;;
16504;SDS011;8365;51.030;4.696;2023-05-10T14:16:56;7.63;;;5.72;;
16504;SDS011;8365;51.030;4.696;2023-05-10T14:19:26;8.07;;;5.53;;
16504;SDS011;8365;51.030;4.696;2023-05-10T14:21:57;8.75;;;5.13;;
16504;SDS011;8365;51.030;4.696;2023-05-10T14:24:28;6.53;;;5.53;;
16504;SDS011;8365;51.030;4.696;2023-05-10T14:26:58;5.35;;;4.85;;
16504;SDS011;8365;51.030;4.696;2023-05-10T14:29:29;7.85;;;5.85;;
16504;SDS011;8365;51.030;4.696;2023-05-10T14:31:59;7.85;;;7.05;;
16504;SDS011;8365;51.030;4.696;2023-05-10T14:34:30;8.20;;;7.40;;
16504;SDS011;8365;51.030;4.696;2023-05-10T14:37:00;8.10;;;7.10;;
16504;SDS011;8365;51.030;4.696;2023-05-10T14:39:31;7.38;;;6.68;;
16504;SDS011;8365;51.030;4.696;2023-05-10T14:42:03;8.10;;;7.35;;
16504;SDS011;8365;51.030;4.696;2023-05-10T14:44:33;7.70;;;6.90;;
16504;SDS011;8365;51.030;4.696;2023-05-10T14:47:07;9.90;;;7.63;;
16504;SDS011;8365;51.030;4.696;2023-05-10T14:49:37;8.40;;;7.28;;
16504;SDS011;8365;51.030;4.696;2023-05-10T14:52:07;8.43;;;7.63;;
16504;SDS011;8365;51.030;4.696;2023-05-10T14:54:38;8.95;;;8.05;;
16504;SDS011;8365;51.030;4.696;2023-05-10T14:57:09;9.73;;;8.73;;
16504;SDS011;8365;51.030;4.696;2023-05-10T14:59:39;9.45;;;8.35;;
16504;SDS011;8365;51.030;4.696;2023-05-10T15:02:09;10.85;;;8.73;;
16504;SDS011;8365;51.030;4.696;2023-05-10T15:04:40;9.52;;;8.60;;
16504;SDS011;8365;51.030;4.696;2023-05-10T15:07:11;10.25;;;8.55;;
16504;SDS011;8365;51.030;4.696;2023-05-10T15:09:44;11.95;;;9.27;;
16504;SDS011;8365;51.030;4.696;2023-05-10T15:12:15;9.38;;;8.45;;
16504;SDS011;8365;51.030;4.696;2023-05-10T15:14:46;11.23;;;9.65;;
16504;SDS011;8365;51.030;4.696;2023-05-10T15:17:16;10.75;;;9.18;;
16504;SDS011;8365;51.030;4.696;2023-05-10T15:19:47;11.40;;;9.60;;
16504;SDS011;8365;51.030;4.696;2023-05-10T15:22:19;10.40;;;9.32;;
16504;SDS011;8365;51.030;4.696;2023-05-10T15:24:49;10.85;;;9.80;;
16504;SDS011;8365;51.030;4.696;2023-05-10T15:27:22;11.20;;;9.65;;
16504;SDS011;8365;51.030;4.696;2023-05-10T15:29:52;14.52;;;11.10;;
16504;SDS011;8365;51.030;4.696;2023-05-10T15:32:23;12.77;;;10.85;;
16504;SDS011;8365;51.030;4.696;2023-05-10T15:34:55;14.35;;;11.88;;
16504;SDS011;8365;51.030;4.696;2023-05-10T15:37:26;12.73;;;11.32;;
16504;SDS011;8365;51.030;4.696;2023-05-10T15:39:57;14.18;;;10.80;;
16504;SDS011;8365;51.030;4.696;2023-05-10T15:42:33;10.82;;;9.73;;
16504;SDS011;8365;51.030;4.696;2023-05-10T15:45:03;12.05;;;9.88;;
16504;SDS011;8365;51.030;4.696;2023-05-10T15:47:34;11.50;;;9.25;;
16504;SDS011;8365;51.030;4.696;2023-05-10T15:50:06;11.65;;;10.45;;
16504;SDS011;8365;51.030;4.696;2023-05-10T15:52:37;8.82;;;7.07;;
16504;SDS011;8365;51.030;4.696;2023-05-10T15:55:08;7.10;;;5.45;;
16504;SDS011;8365;51.030;4.696;2023-05-10T15:57:42;4.50;;;4.10;;
16504;SDS011;8365;51.030;4.696;2023-05-10T16:00:13;5.13;;;3.88;;
16504;SDS011;8365;51.030;4.696;2023-05-10T16:02:46;6.97;;;4.70;;